Rock Island, Illinois
Current Conditions -  °F | °C
As of 4:13 AM on Thursday 29 Jan 2015 (Local Time) from KMLI Reporting Station
Broken Clouds Broken Clouds  
Wind Chill: 24°   Ceiling: 2400
Heat Index: 33°   Visibility: 7mi
Dew Point: 29°   Wind: 13mph
Humidity: 85%   Direction: 310°NW
Pressure: 29.75"   Gusts: NA
Location:  41.51°N, 90.58°W
Report Text: KMLI 291013Z AUTO 31011KT 7SM BKN024 01/M02 A2975 RMK AO2 T00061017 $
Loading
Personal Weather Stations






























Interactive Weather Map New forecast layout! Learn more

10-Day Weather Forecast

Advertisements
Track Severe Weather on mobile